sensor_id;sensor_type;location;lat;lon;timestamp;pressure;altitude;pressure_sealevel;temperature;humidity
68525;BME280;55524;51.380;13.372;2023-01-31T00:01:20;100596.44;;;2.85;98.98
68525;BME280;55524;51.380;13.372;2023-01-31T00:03:47;100592.03;;;2.96;99.47
68525;BME280;55524;51.380;13.372;2023-01-31T00:08:49;100592.91;;;2.92;99.77
68525;BME280;55524;51.380;13.372;2023-01-31T00:11:17;100587.66;;;3.03;99.41
68525;BME280;55524;51.380;13.372;2023-01-31T00:13:45;100598.94;;;3.07;99.92
68525;BME280;55524;51.380;13.372;2023-01-31T00:16:12;100588.50;;;3.08;99.66
68525;BME280;55524;51.380;13.372;2023-01-31T00:18:39;100586.75;;;3.07;100.00
68525;BME280;55524;51.380;13.372;2023-01-31T00:21:13;100591.94;;;3.16;99.38
68525;BME280;55524;51.380;13.372;2023-01-31T00:23:41;100589.31;;;3.16;99.18
68525;BME280;55524;51.380;13.372;2023-01-31T00:26:18;100592.81;;;3.18;98.86
68525;BME280;55524;51.380;13.372;2023-01-31T00:28:45;100585.88;;;3.17;97.94
68525;BME280;55524;51.380;13.372;2023-01-31T00:31:13;100593.66;;;3.22;98.00
68525;BME280;55524;51.380;13.372;2023-01-31T00:33:41;100599.78;;;3.15;98.57
68525;BME280;55524;51.380;13.372;2023-01-31T00:36:13;100607.66;;;3.07;98.83
68525;BME280;55524;51.380;13.372;2023-01-31T00:38:40;100616.38;;;3.06;99.44
68525;BME280;55524;51.380;13.372;2023-01-31T00:41:10;100603.25;;;3.12;98.72
68525;BME280;55524;51.380;13.372;2023-01-31T00:43:37;100596.38;;;2.99;99.38
68525;BME280;55524;51.380;13.372;2023-01-31T00:46:03;100608.56;;;2.92;100.00
68525;BME280;55524;51.380;13.372;2023-01-31T00:48:30;100604.25;;;2.90;100.00
68525;BME280;55524;51.380;13.372;2023-01-31T00:50:56;100612.94;;;2.89;99.93
68525;BME280;55524;51.380;13.372;2023-01-31T00:53:22;100615.56;;;2.83;100.00
68525;BME280;55524;51.380;13.372;2023-01-31T00:55:51;100616.44;;;2.83;99.58
68525;BME280;55524;51.380;13.372;2023-01-31T00:58:18;100621.69;;;2.82;99.74
68525;BME280;55524;51.380;13.372;2023-01-31T01:00:45;100606.06;;;2.69;99.01
68525;BME280;55524;51.380;13.372;2023-01-31T01:03:12;100606.94;;;2.65;99.37
68525;BME280;55524;51.380;13.372;2023-01-31T01:05:39;100616.50;;;2.59;98.71
68525;BME280;55524;51.380;13.372;2023-01-31T01:08:06;100633.91;;;2.49;98.91
68525;BME280;55524;51.380;13.372;2023-01-31T01:10:33;100626.97;;;2.43;98.84
68525;BME280;55524;51.380;13.372;2023-01-31T01:12:59;100646.94;;;2.40;98.69
68525;BME280;55524;51.380;13.372;2023-01-31T01:15:25;100651.31;;;2.39;99.63
68525;BME280;55524;51.380;13.372;2023-01-31T01:17:52;100659.13;;;2.39;99.93
68525;BME280;55524;51.380;13.372;2023-01-31T01:20:19;100666.94;;;2.33;100.00
68525;BME280;55524;51.380;13.372;2023-01-31T01:22:45;100672.19;;;2.30;100.00
68525;BME280;55524;51.380;13.372;2023-01-31T01:25:12;100663.50;;;2.30;100.00
68525;BME280;55524;51.380;13.372;2023-01-31T01:27:38;100668.69;;;2.25;100.00
68525;BME280;55524;51.380;13.372;2023-01-31T01:30:05;100671.31;;;2.14;100.00
68525;BME280;55524;51.380;13.372;2023-01-31T01:32:32;100672.16;;;2.07;100.00
68525;BME280;55524;51.380;13.372;2023-01-31T01:34:58;100667.81;;;2.06;100.00
68525;BME280;55524;51.380;13.372;2023-01-31T01:37:25;100671.28;;;2.05;100.00
68525;BME280;55524;51.380;13.372;2023-01-31T01:39:52;100685.19;;;2.26;100.00
68525;BME280;55524;51.380;13.372;2023-01-31T01:42:21;100677.38;;;2.27;100.00
68525;BME280;55524;51.380;13.372;2023-01-31T01:44:54;100690.41;;;2.19;100.00
68525;BME280;55524;51.380;13.372;2023-01-31T01:55:32;100679.06;;;1.90;100.00
68525;BME280;55524;51.380;13.372;2023-01-31T01:58:17;100686.03;;;1.86;100.00
68525;BME280;55524;51.380;13.372;2023-01-31T02:00:46;100692.97;;;1.93;100.00
68525;BME280;55524;51.380;13.372;2023-01-31T02:03:14;100701.69;;;2.03;100.00
68525;BME280;55524;51.380;13.372;2023-01-31T02:05:51;100707.75;;;2.05;100.00
68525;BME280;55524;51.380;13.372;2023-01-31T02:08:20;100702.56;;;2.16;100.00
68525;BME280;55524;51.380;13.372;2023-01-31T02:13:35;100706.94;;;2.28;100.00
68525;BME280;55524;51.380;13.372;2023-01-31T02:16:03;100699.13;;;2.34;100.00
68525;BME280;55524;51.380;13.372;2023-01-31T02:18:29;100713.88;;;2.36;100.00
68525;BME280;55524;51.380;13.372;2023-01-31T02:35:12;100723.44;;;2.65;100.00
68525;BME280;55524;51.380;13.372;2023-01-31T02:37:52;100720.84;;;2.62;100.00
68525;BME280;55524;51.380;13.372;2023-01-31T02:43:31;100730.41;;;2.67;100.00
68525;BME280;55524;51.380;13.372;2023-01-31T02:46:23;100737.38;;;2.59;100.00
68525;BME280;55524;51.380;13.372;2023-01-31T02:54:47;100751.28;;;2.58;100.00
68525;BME280;55524;51.380;13.372;2023-01-31T02:57:34;100760.84;;;2.56;100.00
68525;BME280;55524;51.380;13.372;2023-01-31T03:00:02;100761.72;;;2.61;100.00
68525;BME280;55524;51.380;13.372;2023-01-31T03:02:29;100787.81;;;2.58;100.00
68525;BME280;55524;51.380;13.372;2023-01-31T03:04:55;100794.75;;;2.58;100.00
68525;BME280;55524;51.380;13.372;2023-01-31T03:07:28;100780.84;;;2.65;100.00
68525;BME280;55524;51.380;13.372;2023-01-31T03:18:29;100801.72;;;2.68;100.00
68525;BME280;55524;51.380;13.372;2023-01-31T03:21:12;100806.94;;;2.63;100.00
68525;BME280;55524;51.380;13.372;2023-01-31T03:23:43;100808.69;;;2.67;100.00
68525;BME280;55524;51.380;13.372;2023-01-31T03:26:11;100817.38;;;2.66;100.00
68525;BME280;55524;51.380;13.372;2023-01-31T03:28:40;100807.78;;;2.68;100.00
68525;BME280;55524;51.380;13.372;2023-01-31T03:31:18;100826.09;;;2.70;100.00
68525;BME280;55524;51.380;13.372;2023-01-31T03:33:51;100827.81;;;2.66;100.00
68525;BME280;55524;51.380;13.372;2023-01-31T03:41:56;100818.22;;;2.55;100.00
68525;BME280;55524;51.380;13.372;2023-01-31T03:47:25;100819.09;;;2.64;100.00
68525;BME280;55524;51.380;13.372;2023-01-31T03:49:55;100825.19;;;2.66;100.00
68525;BME280;55524;51.380;13.372;2023-01-31T03:52:30;100825.19;;;2.66;100.00
68525;BME280;55524;51.380;13.372;2023-01-31T03:55:07;100850.41;;;2.64;100.00
68525;BME280;55524;51.380;13.372;2023-01-31T03:57:37;100856.50;;;2.68;100.00
68525;BME280;55524;51.380;13.372;2023-01-31T04:00:10;100848.66;;;2.57;100.00
68525;BME280;55524;51.380;13.372;2023-01-31T04:02:39;100858.22;;;2.51;100.00
68525;BME280;55524;51.380;13.372;2023-01-31T04:05:14;100847.78;;;2.46;100.00
68525;BME280;55524;51.380;13.372;2023-01-31T04:07:42;100849.50;;;2.47;100.00
68525;BME280;55524;51.380;13.372;2023-01-31T04:10:13;100839.91;;;2.41;100.00
68525;BME280;55524;51.380;13.372;2023-01-31T04:12:40;100842.53;;;2.40;100.00
68525;BME280;55524;51.380;13.372;2023-01-31T04:15:07;100835.59;;;2.46;100.00
68525;BME280;55524;51.380;13.372;2023-01-31T04:17:34;100838.19;;;2.45;100.00
68525;BME280;55524;51.380;13.372;2023-01-31T04:20:04;100847.75;;;2.49;100.00
68525;BME280;55524;51.380;13.372;2023-01-31T04:22:31;100845.16;;;2.52;100.00
68525;BME280;55524;51.380;13.372;2023-01-31T04:24:57;100860.84;;;2.63;100.00
68525;BME280;55524;51.380;13.372;2023-01-31T04:27:23;100857.38;;;2.64;100.00
68525;BME280;55524;51.380;13.372;2023-01-31T04:29:50;100856.50;;;2.68;100.00
68525;BME280;55524;51.380;13.372;2023-01-31T04:32:16;100860.00;;;2.79;100.00
68525;BME280;55524;51.380;13.372;2023-01-31T04:34:42;100865.22;;;2.81;100.00
68525;BME280;55524;51.380;13.372;2023-01-31T04:37:08;100872.19;;;2.79;100.00
68525;BME280;55524;51.380;13.372;2023-01-31T04:39:35;100884.34;;;2.80;100.00
68525;BME280;55524;51.380;13.372;2023-01-31T04:42:01;100873.03;;;2.81;100.00
68525;BME280;55524;51.380;13.372;2023-01-31T04:44:27;100884.38;;;2.83;100.00
68525;BME280;55524;51.380;13.372;2023-01-31T04:46:53;100882.63;;;2.83;100.00
68525;BME280;55524;51.380;13.372;2023-01-31T04:49:20;100885.22;;;2.88;100.00
68525;BME280;55524;51.380;13.372;2023-01-31T04:51:46;100873.06;;;2.88;100.00
68525;BME280;55524;51.380;13.372;2023-01-31T04:54:12;100890.44;;;2.85;100.00
68525;BME280;55524;51.380;13.372;2023-01-31T04:56:39;100893.09;;;2.94;100.00
68525;BME280;55524;51.380;13.372;2023-01-31T04:59:05;100898.28;;;2.95;99.82
68525;BME280;55524;51.380;13.372;2023-01-31T05:01:31;100890.47;;;3.03;99.44
68525;BME280;55524;51.380;13.372;2023-01-31T05:03:57;100888.75;;;3.02;99.88
68525;BME280;55524;51.380;13.372;2023-01-31T05:06:24;100883.53;;;3.02;99.59
68525;BME280;55524;51.380;13.372;2023-01-31T05:08:50;100893.97;;;3.02;100.00
68525;BME280;55524;51.380;13.372;2023-01-31T05:11:19;100894.84;;;3.01;99.95
68525;BME280;55524;51.380;13.372;2023-01-31T05:13:46;100883.50;;;2.99;100.00
68525;BME280;55524;51.380;13.372;2023-01-31T05:16:13;100889.63;;;3.01;100.00
68525;BME280;55524;51.380;13.372;2023-01-31T05:18:40;100893.97;;;2.98;100.00
68525;BME280;55524;51.380;13.372;2023-01-31T05:21:07;100888.72;;;2.91;100.00
68525;BME280;55524;51.380;13.372;2023-01-31T05:23:34;100890.47;;;2.91;100.00
68525;BME280;55524;51.380;13.372;2023-01-31T05:26:00;100894.81;;;2.95;100.00
68525;BME280;55524;51.380;13.372;2023-01-31T05:28:27;100887.00;;;2.98;100.00
68525;BME280;55524;51.380;13.372;2023-01-31T05:30:59;100895.69;;;3.02;99.54
68525;BME280;55524;51.380;13.372;2023-01-31T05:33:26;100898.31;;;2.97;100.00
68525;BME280;55524;51.380;13.372;2023-01-31T05:35:52;100890.47;;;3.03;99.77
68525;BME280;55524;51.380;13.372;2023-01-31T05:38:21;100890.47;;;3.00;100.00
68525;BME280;55524;51.380;13.372;2023-01-31T05:40:53;100896.56;;;2.99;100.00
68525;BME280;55524;51.380;13.372;2023-01-31T05:43:19;100891.34;;;2.99;100.00
68525;BME280;55524;51.380;13.372;2023-01-31T05:45:47;100892.22;;;3.00;100.00
68525;BME280;55524;51.380;13.372;2023-01-31T05:48:14;100906.13;;;2.95;100.00
68525;BME280;55524;51.380;13.372;2023-01-31T05:50:40;100900.91;;;2.89;100.00
68525;BME280;55524;51.380;13.372;2023-01-31T05:53:07;100903.53;;;2.99;100.00
68525;BME280;55524;51.380;13.372;2023-01-31T05:55:34;100917.44;;;2.96;100.00
68525;BME280;55524;51.380;13.372;2023-01-31T05:58:00;100917.44;;;2.98;100.00
68525;BME280;55524;51.380;13.372;2023-01-31T06:00:26;100920.91;;;2.90;100.00
68525;BME280;55524;51.380;13.372;2023-01-31T06:02:56;100916.56;;;2.89;100.00
68525;BME280;55524;51.380;13.372;2023-01-31T06:05:23;100922.63;;;2.81;100.00
68525;BME280;55524;51.380;13.372;2023-01-31T06:07:49;100920.03;;;2.78;100.00
68525;BME280;55524;51.380;13.372;2023-01-31T06:10:16;100915.66;;;2.70;100.00
68525;BME280;55524;51.380;13.372;2023-01-31T06:12:42;100922.63;;;2.70;100.00
68525;BME280;55524;51.380;13.372;2023-01-31T06:15:09;100933.03;;;2.64;100.00
68525;BME280;55524;51.380;13.372;2023-01-31T06:17:35;100924.31;;;2.65;100.00
68525;BME280;55524;51.380;13.372;2023-01-31T06:20:02;100932.16;;;2.63;100.00
68525;BME280;55524;51.380;13.372;2023-01-31T06:22:29;100939.13;;;2.63;100.00
68525;BME280;55524;51.380;13.372;2023-01-31T06:24:55;100941.72;;;2.60;100.00
68525;BME280;55524;51.380;13.372;2023-01-31T06:27:21;100945.19;;;2.54;100.00
68525;BME280;55524;51.380;13.372;2023-01-31T06:29:47;100939.09;;;2.51;100.00
68525;BME280;55524;51.380;13.372;2023-01-31T06:32:14;100934.72;;;2.46;100.00
68525;BME280;55524;51.380;13.372;2023-01-31T06:34:40;100952.09;;;2.43;100.00
68525;BME280;55524;51.380;13.372;2023-01-31T06:37:08;100941.63;;;2.40;100.00
68525;BME280;55524;51.380;13.372;2023-01-31T06:39:35;100937.31;;;2.43;100.00
68525;BME280;55524;51.380;13.372;2023-01-31T06:42:02;100938.19;;;2.42;100.00
68525;BME280;55524;51.380;13.372;2023-01-31T06:44:28;100931.22;;;2.38;100.00
68525;BME280;55524;51.380;13.372;2023-01-31T06:46:58;100940.78;;;2.39;100.00
68525;BME280;55524;51.380;13.372;2023-01-31T06:49:25;100939.94;;;2.42;100.00
68525;BME280;55524;51.380;13.372;2023-01-31T06:51:51;100939.94;;;2.46;100.00
68525;BME280;55524;51.380;13.372;2023-01-31T06:54:17;100942.56;;;2.51;100.00
68525;BME280;55524;51.380;13.372;2023-01-31T06:56:44;100949.50;;;2.57;100.00
68525;BME280;55524;51.380;13.372;2023-01-31T06:59:10;100949.53;;;2.60;100.00
68525;BME280;55524;51.380;13.372;2023-01-31T07:01:36;100954.75;;;2.58;100.00
68525;BME280;55524;51.380;13.372;2023-01-31T07:04:02;100955.63;;;2.59;100.00
68525;BME280;55524;51.380;13.372;2023-01-31T07:06:29;100960.84;;;2.54;100.00
68525;BME280;55524;51.380;13.372;2023-01-31T07:08:55;100973.84;;;2.51;100.00
68525;BME280;55524;51.380;13.372;2023-01-31T07:11:21;100958.22;;;2.50;100.00
68525;BME280;55524;51.380;13.372;2023-01-31T07:13:47;100966.00;;;2.45;100.00
68525;BME280;55524;51.380;13.372;2023-01-31T07:16:15;100971.22;;;2.43;100.00
68525;BME280;55524;51.380;13.372;2023-01-31T07:18:42;100971.22;;;2.42;100.00
68525;BME280;55524;51.380;13.372;2023-01-31T07:21:08;100983.38;;;2.43;100.00
68525;BME280;55524;51.380;13.372;2023-01-31T07:23:35;100987.72;;;2.41;100.00
68525;BME280;55524;51.380;13.372;2023-01-31T07:26:05;100981.66;;;2.42;100.00
68525;BME280;55524;51.380;13.372;2023-01-31T07:28:32;100976.41;;;2.39;100.00
68525;BME280;55524;51.380;13.372;2023-01-31T07:31:10;100969.44;;;2.36;100.00
68525;BME280;55524;51.380;13.372;2023-01-31T07:33:38;100968.59;;;2.39;100.00
68525;BME280;55524;51.380;13.372;2023-01-31T07:36:05;100969.47;;;2.42;100.00
68525;BME280;55524;51.380;13.372;2023-01-31T07:38:32;100970.31;;;2.41;100.00
68525;BME280;55524;51.380;13.372;2023-01-31T07:41:00;100962.53;;;2.43;100.00
68525;BME280;55524;51.380;13.372;2023-01-31T07:43:28;100959.91;;;2.43;100.00
68525;BME280;55524;51.380;13.372;2023-01-31T07:45:55;100957.31;;;2.46;100.00
68525;BME280;55524;51.380;13.372;2023-01-31T07:48:21;100947.75;;;2.46;100.00
68525;BME280;55524;51.380;13.372;2023-01-31T07:50:58;100948.63;;;2.47;100.00
68525;BME280;55524;51.380;13.372;2023-01-31T07:53:30;100946.03;;;2.50;100.00
68525;BME280;55524;51.380;13.372;2023-01-31T07:56:11;100954.72;;;2.52;100.00
68525;BME280;55524;51.380;13.372;2023-01-31T07:58:39;100953.84;;;2.52;100.00
68525;BME280;55524;51.380;13.372;2023-01-31T08:01:06;100943.44;;;2.55;100.00
68525;BME280;55524;51.380;13.372;2023-01-31T08:03:51;100949.53;;;2.54;100.00
68525;BME280;55524;51.380;13.372;2023-01-31T08:06:17;100946.06;;;2.61;100.00
68525;BME280;55524;51.380;13.372;2023-01-31T08:08:44;100947.81;;;2.63;100.00
68525;BME280;55524;51.380;13.372;2023-01-31T08:11:11;100933.94;;;2.75;100.00
68525;BME280;55524;51.380;13.372;2023-01-31T08:13:37;100937.41;;;2.85;100.00
68525;BME280;55524;51.380;13.372;2023-01-31T08:16:06;100928.75;;;2.92;100.00
68525;BME280;55524;51.380;13.372;2023-01-31T08:18:37;100935.69;;;2.91;100.00
68525;BME280;55524;51.380;13.372;2023-01-31T08:21:04;100927.88;;;2.99;100.00
68525;BME280;55524;51.380;13.372;2023-01-31T08:23:31;100933.09;;;3.04;100.00
68525;BME280;55524;51.380;13.372;2023-01-31T08:26:04;100934.00;;;3.10;100.00
68525;BME280;55524;51.380;13.372;2023-01-31T08:28:31;100926.13;;;3.09;100.00
68525;BME280;55524;51.380;13.372;2023-01-31T08:31:01;100929.63;;;3.12;100.00
68525;BME280;55524;51.380;13.372;2023-01-31T08:33:27;100932.25;;;3.15;100.00
68525;BME280;55524;51.380;13.372;2023-01-31T08:35:53;100941.84;;;3.18;100.00
68525;BME280;55524;51.380;13.372;2023-01-31T08:38:20;100929.66;;;3.23;100.00
68525;BME280;55524;51.380;13.372;2023-01-31T08:40:46;100929.66;;;3.26;100.00
68525;BME280;55524;51.380;13.372;2023-01-31T08:43:13;100934.88;;;3.29;100.00
68525;BME280;55524;51.380;13.372;2023-01-31T08:45:39;100929.63;;;3.32;100.00
68525;BME280;55524;51.380;13.372;2023-01-31T08:48:06;100921.81;;;3.31;99.14
68525;BME280;55524;51.380;13.372;2023-01-31T08:50:33;100916.56;;;3.48;99.20
68525;BME280;55524;51.380;13.372;2023-01-31T08:53:01;100913.09;;;3.59;97.28
68525;BME280;55524;51.380;13.372;2023-01-31T08:55:30;100911.31;;;3.70;95.63
68525;BME280;55524;51.380;13.372;2023-01-31T08:57:56;100909.59;;;3.69;94.97
68525;BME280;55524;51.380;13.372;2023-01-31T09:00:23;100905.22;;;3.64;95.28
68525;BME280;55524;51.380;13.372;2023-01-31T09:02:59;100917.44;;;3.62;94.73
68525;BME280;55524;51.380;13.372;2023-01-31T09:05:27;100915.72;;;3.61;94.84
68525;BME280;55524;51.380;13.372;2023-01-31T09:07:54;100909.59;;;3.66;94.32
68525;BME280;55524;51.380;13.372;2023-01-31T09:10:21;100910.47;;;3.67;93.97
68525;BME280;55524;51.380;13.372;2023-01-31T09:12:48;100904.38;;;3.69;93.55
68525;BME280;55524;51.380;13.372;2023-01-31T09:15:14;100903.50;;;3.74;93.21
68525;BME280;55524;51.380;13.372;2023-01-31T09:17:44;100906.97;;;3.74;94.02
68525;BME280;55524;51.380;13.372;2023-01-31T09:20:10;100892.16;;;3.75;92.92
68525;BME280;55524;51.380;13.372;2023-01-31T09:22:37;100893.03;;;3.84;92.01
68525;BME280;55524;51.380;13.372;2023-01-31T09:25:06;100888.63;;;3.91;90.72
68525;BME280;55524;51.380;13.372;2023-01-31T09:27:35;100893.84;;;3.95;91.57
68525;BME280;55524;51.380;13.372;2023-01-31T09:30:04;100886.88;;;4.01;92.88
68525;BME280;55524;51.380;13.372;2023-01-31T09:32:31;100882.50;;;4.00;90.17
68525;BME280;55524;51.380;13.372;2023-01-31T09:34:58;100873.75;;;4.07;89.68
68525;BME280;55524;51.380;13.372;2023-01-31T09:37:30;100875.50;;;4.03;90.70
68525;BME280;55524;51.380;13.372;2023-01-31T09:39:57;100874.63;;;4.09;90.84
68525;BME280;55524;51.380;13.372;2023-01-31T09:42:30;100873.78;;;4.05;90.32
68525;BME280;55524;51.380;13.372;2023-01-31T09:45:16;100874.63;;;4.09;90.64
68525;BME280;55524;51.380;13.372;2023-01-31T09:47:59;100879.88;;;3.98;90.38
68525;BME280;55524;51.380;13.372;2023-01-31T09:50:46;100868.56;;;4.01;91.52
68525;BME280;55524;51.380;13.372;2023-01-31T09:53:19;100872.91;;;3.99;91.33
68525;BME280;55524;51.380;13.372;2023-01-31T09:58:55;100883.38;;;3.97;91.15
68525;BME280;55524;51.380;13.372;2023-01-31T10:07:33;100858.09;;;4.02;90.66
68525;BME280;55524;51.380;13.372;2023-01-31T10:12:54;100858.94;;;4.07;90.28
68525;BME280;55524;51.380;13.372;2023-01-31T10:15:34;100865.03;;;4.06;90.08
68525;BME280;55524;51.380;13.372;2023-01-31T10:18:12;100852.81;;;4.11;89.76
68525;BME280;55524;51.380;13.372;2023-01-31T10:20:55;100845.84;;;4.12;89.97
68525;BME280;55524;51.380;13.372;2023-01-31T10:23:42;100840.56;;;4.19;88.85
68525;BME280;55524;51.380;13.372;2023-01-31T10:31:39;100837.88;;;4.35;89.16
68525;BME280;55524;51.380;13.372;2023-01-31T10:34:28;100833.50;;;4.37;87.73
68525;BME280;55524;51.380;13.372;2023-01-31T10:37:04;100818.63;;;4.45;87.16
68525;BME280;55524;51.380;13.372;2023-01-31T10:39:36;100824.72;;;4.47;86.63
68525;BME280;55524;51.380;13.372;2023-01-31T10:44:51;100820.38;;;4.48;87.07
68525;BME280;55524;51.380;13.372;2023-01-31T10:47:21;100816.91;;;4.42;87.71
68525;BME280;55524;51.380;13.372;2023-01-31T10:49:49;100809.06;;;4.41;87.88
68525;BME280;55524;51.380;13.372;2023-01-31T10:52:21;100808.25;;;4.36;88.63
68525;BME280;55524;51.380;13.372;2023-01-31T10:55:14;100809.97;;;4.34;88.79
68525;BME280;55524;51.380;13.372;2023-01-31T10:57:47;100797.75;;;4.34;89.13
68525;BME280;55524;51.380;13.372;2023-01-31T11:00:21;100783.78;;;4.41;89.43
68525;BME280;55524;51.380;13.372;2023-01-31T11:02:48;100775.03;;;4.42;87.93
68525;BME280;55524;51.380;13.372;2023-01-31T11:05:26;100771.53;;;4.45;87.69
68525;BME280;55524;51.380;13.372;2023-01-31T11:07:58;100761.91;;;4.52;86.82
68525;BME280;55524;51.380;13.372;2023-01-31T11:10:30;100762.72;;;4.60;85.83
68525;BME280;55524;51.380;13.372;2023-01-31T11:13:02;100748.72;;;4.64;86.10
68525;BME280;55524;51.380;13.372;2023-01-31T11:15:41;100731.19;;;4.74;85.05
68525;BME280;55524;51.380;13.372;2023-01-31T11:18:28;100731.09;;;4.83;85.39
68525;BME280;55524;51.380;13.372;2023-01-31T11:20:58;100742.38;;;4.91;84.46
68525;BME280;55524;51.380;13.372;2023-01-31T11:23:29;100727.50;;;4.93;84.44
68525;BME280;55524;51.380;13.372;2023-01-31T11:25:56;100723.13;;;4.93;84.03
68525;BME280;55524;51.380;13.372;2023-01-31T11:28:39;100711.81;;;4.90;84.53
68525;BME280;55524;51.380;13.372;2023-01-31T11:31:18;100704.88;;;4.86;83.56
68525;BME280;55524;51.380;13.372;2023-01-31T11:34:01;100711.00;;;4.85;83.63
68525;BME280;55524;51.380;13.372;2023-01-31T11:36:32;100690.00;;;4.91;83.17
68525;BME280;55524;51.380;13.372;2023-01-31T11:39:30;100672.56;;;4.91;82.60
68525;BME280;55524;51.380;13.372;2023-01-31T11:42:14;100683.00;;;4.93;82.95
68525;BME280;55524;51.380;13.372;2023-01-31T11:45:09;100679.50;;;4.96;82.71
68525;BME280;55524;51.380;13.372;2023-01-31T11:48:16;100671.59;;;4.97;82.48
68525;BME280;55524;51.380;13.372;2023-01-31T11:50:37;100668.88;;;5.06;82.32
68525;BME280;55524;51.380;13.372;2023-01-31T11:54:02;100653.88;;;5.21;81.45
68525;BME280;55524;51.380;13.372;2023-01-31T11:56:26;100642.34;;;5.35;81.06
68525;BME280;55524;51.380;13.372;2023-01-31T11:58:57;100634.25;;;5.52;81.34
68525;BME280;55524;51.380;13.372;2023-01-31T12:01:28;100636.84;;;5.55;80.59
68525;BME280;55524;51.380;13.372;2023-01-31T12:04:03;100621.13;;;5.54;80.33
68525;BME280;55524;51.380;13.372;2023-01-31T12:06:38;100642.13;;;5.52;81.41
68525;BME280;55524;51.380;13.372;2023-01-31T12:09:21;100621.97;;;5.54;81.17
68525;BME280;55524;51.380;13.372;2023-01-31T12:12:00;100609.72;;;5.56;80.19
68525;BME280;55524;51.380;13.372;2023-01-31T12:14:41;100603.63;;;5.54;81.14
68525;BME280;55524;51.380;13.372;2023-01-31T12:17:15;100591.56;;;5.44;81.22
68525;BME280;55524;51.380;13.372;2023-01-31T12:19:45;100595.22;;;5.32;80.45
68525;BME280;55524;51.380;13.372;2023-01-31T12:22:17;100615.41;;;5.24;82.98
68525;BME280;55524;51.380;13.372;2023-01-31T12:25:01;100627.84;;;5.08;85.66
68525;BME280;55524;51.380;13.372;2023-01-31T12:27:40;100622.88;;;4.82;86.97
68525;BME280;55524;51.380;13.372;2023-01-31T12:41:40;100579.06;;;5.00;89.28
68525;BME280;55524;51.380;13.372;2023-01-31T13:00:22;100551.44;;;4.71;89.85
68525;BME280;55524;51.380;13.372;2023-01-31T13:06:05;100536.88;;;4.50;96.85
68525;BME280;55524;51.380;13.372;2023-01-31T13:08:34;100528.22;;;4.42;95.13
68525;BME280;55524;51.380;13.372;2023-01-31T13:11:30;100529.19;;;4.36;96.01
68525;BME280;55524;51.380;13.372;2023-01-31T13:14:03;100517.16;;;4.20;97.54
68525;BME280;55524;51.380;13.372;2023-01-31T13:16:43;100506.78;;;4.08;97.73
68525;BME280;55524;51.380;13.372;2023-01-31T13:19:21;100512.06;;;4.03;97.74
68525;BME280;55524;51.380;13.372;2023-01-31T13:21:53;100527.78;;;4.02;98.29
68525;BME280;55524;51.380;13.372;2023-01-31T13:24:27;100530.47;;;3.91;99.51
68525;BME280;55524;51.380;13.372;2023-01-31T13:32:11;100525.34;;;3.82;100.00
68525;BME280;55524;51.380;13.372;2023-01-31T13:34:59;100516.69;;;3.74;100.00
68525;BME280;55524;51.380;13.372;2023-01-31T13:37:31;100507.16;;;3.69;100.00
68525;BME280;55524;51.380;13.372;2023-01-31T13:42:42;100501.19;;;3.54;100.00
68525;BME280;55524;51.380;13.372;2023-01-31T13:45:24;100496.84;;;3.48;100.00
68525;BME280;55524;51.380;13.372;2023-01-31T13:51:15;100482.09;;;3.42;100.00
68525;BME280;55524;51.380;13.372;2023-01-31T13:54:18;100495.13;;;3.49;100.00
68525;BME280;55524;51.380;13.372;2023-01-31T13:56:52;100478.63;;;3.45;100.00
68525;BME280;55524;51.380;13.372;2023-01-31T13:59:28;100474.28;;;3.41;100.00
68525;BME280;55524;51.380;13.372;2023-01-31T14:01:58;100482.94;;;3.46;100.00
68525;BME280;55524;51.380;13.372;2023-01-31T14:04:35;100465.53;;;3.47;100.00
68525;BME280;55524;51.380;13.372;2023-01-31T14:09:32;100467.25;;;3.48;100.00
68525;BME280;55524;51.380;13.372;2023-01-31T14:12:01;100470.72;;;3.51;100.00
68525;BME280;55524;51.380;13.372;2023-01-31T14:14:51;100475.09;;;3.49;100.00
68525;BME280;55524;51.380;13.372;2023-01-31T14:22:22;100474.16;;;3.55;100.00
68525;BME280;55524;51.380;13.372;2023-01-31T14:27:23;100471.53;;;3.58;100.00
68525;BME280;55524;51.380;13.372;2023-01-31T14:32:38;100464.59;;;3.52;100.00
68525;BME280;55524;51.380;13.372;2023-01-31T14:54:10;100440.13;;;3.65;100.00
68525;BME280;55524;51.380;13.372;2023-01-31T15:05:18;100441.81;;;3.73;100.00
68525;BME280;55524;51.380;13.372;2023-01-31T15:11:13;100449.63;;;3.73;100.00
68525;BME280;55524;51.380;13.372;2023-01-31T15:21:26;100472.38;;;3.61;100.00
68525;BME280;55524;51.380;13.372;2023-01-31T15:23:54;100480.19;;;3.64;100.00
68525;BME280;55524;51.380;13.372;2023-01-31T15:26:23;100482.00;;;3.55;100.00
68525;BME280;55524;51.380;13.372;2023-01-31T15:28:52;100484.69;;;3.47;100.00
68525;BME280;55524;51.380;13.372;2023-01-31T15:34:28;100467.34;;;3.38;100.00
68525;BME280;55524;51.380;13.372;2023-01-31T15:37:19;100469.97;;;3.37;100.00
68525;BME280;55524;51.380;13.372;2023-01-31T15:42:41;100476.09;;;3.28;100.00
68525;BME280;55524;51.380;13.372;2023-01-31T15:47:40;100478.75;;;3.24;100.00
68525;BME280;55524;51.380;13.372;2023-01-31T15:50:16;100470.03;;;3.25;100.00
68525;BME280;55524;51.380;13.372;2023-01-31T15:52:43;100477.91;;;3.22;100.00
68525;BME280;55524;51.380;13.372;2023-01-31T15:55:13;100458.75;;;3.19;100.00
68525;BME280;55524;51.380;13.372;2023-01-31T15:57:53;100466.63;;;3.15;100.00